createdAt,value
2022-08-02T00:00:14.800Z,3.20
2022-08-02T00:02:46.022Z,3.38
2022-08-02T00:05:14.367Z,2.97
2022-08-02T00:07:42.320Z,2.70
2022-08-02T00:10:11.443Z,2.78
2022-08-02T00:12:40.215Z,2.40
2022-08-02T00:15:08.686Z,2.70
2022-08-02T00:17:36.410Z,2.65
2022-08-02T00:20:04.781Z,2.50
2022-08-02T00:22:32.603Z,2.03
2022-08-02T00:25:00.229Z,2.47
2022-08-02T00:27:27.958Z,2.15
2022-08-02T00:29:55.844Z,2.22
2022-08-02T00:32:23.884Z,2.40
2022-08-02T00:34:51.737Z,2.22
2022-08-02T00:37:19.472Z,2.25
2022-08-02T00:39:47.138Z,2.20
2022-08-02T00:42:16.052Z,2.50
2022-08-02T00:44:43.671Z,2.10
2022-08-02T00:47:11.434Z,2.60
2022-08-02T00:49:46.851Z,2.55
2022-08-02T00:52:14.928Z,2.28
2022-08-02T00:54:42.827Z,2.30
2022-08-02T00:57:10.383Z,2.40
2022-08-02T00:59:38.042Z,2.50
2022-08-02T01:02:05.618Z,3.00
2022-08-02T01:04:33.254Z,2.60
2022-08-02T01:07:12.274Z,2.88
2022-08-02T01:09:45.424Z,2.75
2022-08-02T01:12:14.255Z,3.25
2022-08-02T01:14:44.500Z,3.38
2022-08-02T01:17:15.198Z,3.33
2022-08-02T01:20:01.468Z,3.90
2022-08-02T01:23:00.543Z,4.10
2022-08-02T01:25:45.235Z,4.65
2022-08-02T01:28:24.482Z,4.65
2022-08-02T01:30:56.599Z,4.50
2022-08-02T01:33:25.459Z,5.22
2022-08-02T01:35:56.568Z,4.72
2022-08-02T01:38:31.846Z,5.07
2022-08-02T01:40:59.780Z,5.40
2022-08-02T01:43:29.296Z,5.82
2022-08-02T01:45:57.344Z,7.95
2022-08-02T01:48:25.655Z,7.43
2022-08-02T01:50:54.273Z,7.28
2022-08-02T01:53:22.905Z,8.60
2022-08-02T01:55:58.410Z,9.05
2022-08-02T01:58:31.781Z,8.88
2022-08-02T02:01:00.459Z,8.50
2022-08-02T02:03:28.604Z,9.45
2022-08-02T02:05:57.584Z,9.15
2022-08-02T02:08:28.501Z,9.50
2022-08-02T02:10:57.422Z,9.75
2022-08-02T02:13:46.006Z,10.35
2022-08-02T02:16:15.388Z,9.30
2022-08-02T02:18:44.540Z,9.48
2022-08-02T02:21:14.308Z,10.57
2022-08-02T02:23:43.573Z,10.25
2022-08-02T02:26:13.317Z,10.73
2022-08-02T02:28:40.944Z,11.93
2022-08-02T02:31:09.840Z,12.82
2022-08-02T02:33:40.854Z,12.90
2022-08-02T02:36:09.731Z,12.98
2022-08-02T02:38:37.714Z,12.98
2022-08-02T02:41:06.759Z,13.50
2022-08-02T02:43:35.153Z,13.48
2022-08-02T02:46:04.395Z,15.15
2022-08-02T02:48:32.204Z,14.23
2022-08-02T02:51:01.396Z,14.90
2022-08-02T02:53:29.397Z,13.60
2022-08-02T02:56:17.958Z,12.82
2022-08-02T02:58:46.421Z,12.57
2022-08-02T03:01:55.202Z,12.70
2022-08-02T03:04:21.578Z,12.25
2022-08-02T03:06:49.347Z,12.73
2022-08-02T03:09:16.857Z,13.27
2022-08-02T03:11:44.474Z,13.32
2022-08-02T03:14:14.005Z,14.23
2022-08-02T03:16:46.149Z,14.20
2022-08-02T03:19:14.634Z,15.40
2022-08-02T03:21:43.195Z,14.95
2022-08-02T03:24:11.222Z,14.77
2022-08-02T03:26:38.955Z,14.32
2022-08-02T03:29:10.266Z,13.75
2022-08-02T03:31:41.098Z,14.75
2022-08-02T03:34:08.784Z,14.43
2022-08-02T03:36:37.169Z,14.85
2022-08-02T03:39:05.452Z,14.80
2022-08-02T03:41:34.044Z,14.70
2022-08-02T03:44:02.207Z,15.85
2022-08-02T03:46:30.158Z,14.88
2022-08-02T03:48:58.273Z,15.13
2022-08-02T03:51:25.889Z,15.95
2022-08-02T03:53:53.811Z,15.55
2022-08-02T03:56:23.424Z,15.63
2022-08-02T03:58:51.148Z,14.65
2022-08-02T04:01:18.895Z,16.88
2022-08-02T04:03:46.556Z,16.15
2022-08-02T04:06:14.055Z,15.38
2022-08-02T04:08:43.449Z,14.65
2022-08-02T04:11:29.739Z,15.52
2022-08-02T04:13:57.864Z,16.45
2022-08-02T04:16:30.248Z,15.98
2022-08-02T04:18:59.138Z,15.80
2022-08-02T04:21:49.068Z,15.48
2022-08-02T04:24:18.698Z,15.15
2022-08-02T04:26:48.135Z,14.52
2022-08-02T04:29:17.921Z,14.75
2022-08-02T04:31:45.976Z,14.93
2022-08-02T04:34:15.446Z,15.50
2022-08-02T04:36:43.552Z,15.57
2022-08-02T04:39:11.187Z,15.60
2022-08-02T04:41:41.078Z,15.18
2022-08-02T04:44:12.037Z,15.77
2022-08-02T04:46:40.195Z,16.15
2022-08-02T04:49:08.308Z,15.48
2022-08-02T04:51:40.044Z,15.43
2022-08-02T04:54:09.979Z,15.30
2022-08-02T04:56:38.827Z,16.02
2022-08-02T04:59:07.233Z,15.82
2022-08-02T05:01:39.452Z,15.40
2022-08-02T05:04:07.274Z,16.17
2022-08-02T05:06:34.798Z,16.83
2022-08-02T05:09:02.331Z,15.75
2022-08-02T05:11:35.896Z,15.82
2022-08-02T05:16:32.438Z,15.98
2022-08-02T05:19:00.884Z,16.58
2022-08-02T05:21:28.776Z,17.15
2022-08-02T05:23:56.268Z,15.77
2022-08-02T05:26:23.801Z,16.05
2022-08-02T05:28:51.372Z,16.42
2022-08-02T05:31:18.919Z,15.63
2022-08-02T05:33:46.615Z,14.65
2022-08-02T05:36:14.314Z,16.00
2022-08-02T05:38:44.358Z,14.63
2022-08-02T05:41:19.486Z,14.57
2022-08-02T05:43:47.780Z,14.82
2022-08-02T05:46:15.496Z,14.32
2022-08-02T05:48:45.087Z,13.93
2022-08-02T05:51:13.474Z,13.02
2022-08-02T05:53:47.597Z,12.98
2022-08-02T05:56:19.130Z,13.85
2022-08-02T05:58:46.936Z,13.05
2022-08-02T06:01:16.750Z,12.82
2022-08-02T06:03:51.598Z,12.60
2022-08-02T06:06:23.452Z,11.90
2022-08-02T06:09:01.270Z,11.52
2022-08-02T06:11:35.786Z,12.50
2022-08-02T06:14:07.170Z,12.55
2022-08-02T06:16:42.238Z,10.68
2022-08-02T06:19:12.533Z,11.18
2022-08-02T06:22:29.704Z,10.50
2022-08-02T06:24:30.531Z,9.90
2022-08-02T06:26:58.468Z,9.88
2022-08-02T06:29:26.899Z,8.93
2022-08-02T06:31:54.556Z,8.73
2022-08-02T06:34:22.354Z,9.35
2022-08-02T06:37:21.554Z,9.63
2022-08-02T06:39:51.899Z,8.45
2022-08-02T06:42:49.510Z,9.25
2022-08-02T06:45:17.551Z,8.45
2022-08-02T06:47:45.067Z,9.68
2022-08-02T06:50:12.665Z,8.52
2022-08-02T06:52:39.851Z,9.20
2022-08-02T06:55:07.615Z,8.60
2022-08-02T06:57:35.191Z,8.40
2022-08-02T07:00:06.996Z,8.48
2022-08-02T07:02:38.269Z,8.18
2022-08-02T07:05:07.123Z,8.85
2022-08-02T07:07:34.537Z,8.80
2022-08-02T07:10:02.033Z,8.02
2022-08-02T07:12:33.361Z,7.28
2022-08-02T07:15:02.550Z,7.90
2022-08-02T07:17:30.049Z,7.75
2022-08-02T07:19:57.959Z,7.22
2022-08-02T07:22:27.132Z,7.80
2022-08-02T07:24:58.941Z,7.80
2022-08-02T07:27:26.837Z,8.07
2022-08-02T07:29:53.995Z,7.63
2022-08-02T07:32:24.255Z,7.00
2022-08-02T07:34:54.213Z,7.45
2022-08-02T07:37:53.095Z,7.22
2022-08-02T07:40:20.414Z,6.80
2022-08-02T07:42:54.528Z,7.15
2022-08-02T07:45:24.560Z,7.85
2022-08-02T07:47:52.716Z,7.25
2022-08-02T07:50:21.227Z,7.32
2022-08-02T07:52:48.511Z,7.13
2022-08-02T07:55:17.822Z,7.57
2022-08-02T07:57:46.958Z,8.00
2022-08-02T08:00:18.850Z,7.07
2022-08-02T08:02:47.284Z,7.05
2022-08-02T08:05:14.532Z,6.70
2022-08-02T08:07:41.671Z,7.00
2022-08-02T08:10:10.015Z,5.80
2022-08-02T08:12:37.332Z,6.88
2022-08-02T08:15:05.434Z,6.95
2022-08-02T08:17:32.945Z,5.95
2022-08-02T08:20:00.993Z,5.95
2022-08-02T08:22:28.193Z,5.53
2022-08-02T08:24:55.486Z,5.90
2022-08-02T08:27:23.149Z,6.20
2022-08-02T08:29:50.417Z,5.03
2022-08-02T08:32:18.622Z,5.43
2022-08-02T08:34:47.142Z,4.72
2022-08-02T08:37:16.552Z,5.13
2022-08-02T08:39:56.159Z,5.45
2022-08-02T08:42:28.151Z,4.50
2022-08-02T08:44:57.367Z,4.82
2022-08-02T08:47:35.717Z,5.00
2022-08-02T08:50:14.789Z,4.15
2022-08-02T08:53:01.981Z,4.72
2022-08-02T08:55:30.429Z,4.18
2022-08-02T08:57:59.990Z,3.63
2022-08-02T09:00:27.748Z,3.30
2022-08-02T09:02:55.310Z,4.30
2022-08-02T09:05:23.144Z,3.85
2022-08-02T09:07:51.930Z,3.55
2022-08-02T09:10:42.224Z,3.50
2022-08-02T09:13:31.208Z,3.28
2022-08-02T09:16:12.731Z,3.35
2022-08-02T09:18:46.701Z,3.30
2022-08-02T09:21:16.454Z,3.47
2022-08-02T09:23:46.391Z,3.30
2022-08-02T09:26:19.124Z,3.38
2022-08-02T09:28:52.704Z,3.60
2022-08-02T09:31:22.349Z,3.30
2022-08-02T09:33:55.163Z,3.30
2022-08-02T09:36:23.308Z,3.28
2022-08-02T09:39:01.567Z,3.17
2022-08-02T09:41:30.645Z,3.22
2022-08-02T09:44:04.639Z,2.88
2022-08-02T09:46:44.550Z,2.88
2022-08-02T09:49:14.281Z,3.38
2022-08-02T09:51:51.597Z,3.13
2022-08-02T09:54:25.653Z,2.80
2022-08-02T09:57:01.759Z,3.15
2022-08-02T09:59:29.911Z,3.58
2022-08-02T10:02:02.365Z,3.67
2022-08-02T10:04:34.252Z,3.15
2022-08-02T10:07:06.299Z,2.88
2022-08-02T10:09:34.449Z,2.70
2022-08-02T10:12:08.544Z,3.40
2022-08-02T10:14:36.372Z,3.05
2022-08-02T10:17:05.231Z,2.47
2022-08-02T10:20:00.295Z,2.08
2022-08-02T10:22:20.712Z,1.98
2022-08-02T10:24:49.313Z,1.80
2022-08-02T10:27:20.256Z,2.28
2022-08-02T10:29:55.098Z,2.20
2022-08-02T10:32:39.033Z,3.10
2022-08-02T10:35:24.933Z,4.32
2022-08-02T10:38:03.825Z,4.72
2022-08-02T10:40:47.884Z,4.53
2022-08-02T10:43:47.406Z,4.40
2022-08-02T10:46:40.955Z,4.63
2022-08-02T10:52:02.360Z,4.63
2022-08-02T10:54:35.035Z,4.60
2022-08-02T10:57:03.720Z,3.95
2022-08-02T10:59:36.584Z,4.20
2022-08-02T11:02:06.433Z,4.10
2022-08-02T11:04:33.543Z,4.38
2022-08-02T11:07:18.278Z,4.75
2022-08-02T11:09:50.063Z,4.57
2022-08-02T11:12:19.663Z,4.13
2022-08-02T11:15:08.116Z,3.42
2022-08-02T11:17:55.874Z,3.60
2022-08-02T11:20:24.453Z,3.78
2022-08-02T11:22:53.607Z,3.70
2022-08-02T11:25:24.077Z,4.03
2022-08-02T11:27:53.127Z,3.92
2022-08-02T11:30:26.736Z,3.72
2022-08-02T11:32:58.862Z,3.38
2022-08-02T11:35:37.186Z,3.08
2022-08-02T11:38:19.915Z,3.20
2022-08-02T11:40:48.802Z,2.42
2022-08-02T11:43:17.585Z,3.45
2022-08-02T11:45:45.386Z,2.88
2022-08-02T11:48:12.890Z,2.80
2022-08-02T11:50:41.169Z,3.53
2022-08-02T11:53:16.503Z,3.28
2022-08-02T11:55:43.788Z,3.53
2022-08-02T11:58:11.786Z,3.00
2022-08-02T12:00:39.340Z,3.30
2022-08-02T12:03:08.048Z,3.17
2022-08-02T12:08:25.685Z,3.63
2022-08-02T12:10:52.954Z,3.33
2022-08-02T12:13:20.235Z,3.10
2022-08-02T12:15:47.745Z,3.38
2022-08-02T12:18:39.257Z,3.55
2022-08-02T12:21:25.267Z,2.78
2022-08-02T12:24:00.871Z,2.80
2022-08-02T12:26:29.994Z,2.72
2022-08-02T12:28:59.526Z,2.45
2022-08-02T12:31:55.903Z,3.05
2022-08-02T12:34:31.759Z,3.88
2022-08-02T12:37:02.710Z,2.72
2022-08-02T12:39:38.657Z,2.38
2022-08-02T12:42:08.111Z,2.28
2022-08-02T12:44:38.586Z,2.40
2022-08-02T12:47:09.899Z,2.38
2022-08-02T12:49:37.235Z,2.00
2022-08-02T12:52:24.859Z,1.98
2022-08-02T12:54:51.965Z,2.22
2022-08-02T12:57:19.808Z,2.30
2022-08-02T12:59:53.260Z,2.53
2022-08-02T13:02:21.516Z,2.60
2022-08-02T13:04:50.670Z,2.03
2022-08-02T13:07:19.524Z,2.05
2022-08-02T13:09:48.427Z,2.35
2022-08-02T13:12:16.326Z,1.90
2022-08-02T13:14:43.801Z,1.70
2022-08-02T13:17:12.181Z,2.08
2022-08-02T13:19:40.852Z,2.30
2022-08-02T13:22:08.509Z,2.05
2022-08-02T13:24:55.732Z,1.98
2022-08-02T13:27:26.053Z,2.20
2022-08-02T13:29:54.894Z,2.63
2022-08-02T13:32:22.867Z,1.88
2022-08-02T13:34:50.503Z,2.17
2022-08-02T13:37:18.306Z,1.92
2022-08-02T13:40:00.108Z,2.25
2022-08-02T13:42:33.493Z,2.40
2022-08-02T13:45:00.654Z,2.05
2022-08-02T13:48:03.528Z,2.05
2022-08-02T13:50:27.776Z,2.15
2022-08-02T13:52:56.118Z,1.60
2022-08-02T13:55:23.231Z,1.98
2022-08-02T13:57:53.378Z,2.20
2022-08-02T14:00:35.128Z,2.15
2022-08-02T14:03:05.891Z,2.08
2022-08-02T14:05:46.040Z,2.33
2022-08-02T14:08:22.461Z,2.45
2022-08-02T14:10:51.435Z,2.20
2022-08-02T14:13:19.296Z,2.50
2022-08-02T14:15:47.166Z,2.50
2022-08-02T14:18:15.477Z,2.50
2022-08-02T14:20:44.618Z,2.38
2022-08-02T14:23:12.111Z,2.90
2022-08-02T14:25:39.636Z,2.95
2022-08-02T14:28:07.480Z,3.75
2022-08-02T14:30:35.385Z,2.88
2022-08-02T14:33:04.183Z,2.53
2022-08-02T14:35:31.387Z,2.80
2022-08-02T14:37:58.848Z,2.92
2022-08-02T14:40:28.187Z,2.70
2022-08-02T14:43:00.004Z,2.88
2022-08-02T14:45:40.992Z,2.88
2022-08-02T14:48:12.591Z,3.08
2022-08-02T14:50:40.065Z,3.20
2022-08-02T14:53:12.608Z,2.80
2022-08-02T14:55:41.035Z,3.22
2022-08-02T14:58:08.446Z,3.15
2022-08-02T15:00:40.088Z,2.90
2022-08-02T15:03:09.119Z,2.90
2022-08-02T15:05:36.563Z,3.38
2022-08-02T15:08:03.958Z,2.90
2022-08-02T15:10:31.314Z,2.88
2022-08-02T15:12:58.499Z,2.67
2022-08-02T15:15:26.169Z,3.45
2022-08-02T15:17:53.872Z,3.10
2022-08-02T15:20:25.237Z,2.80
2022-08-02T15:22:53.855Z,2.88
2022-08-02T15:25:21.791Z,3.10
2022-08-02T15:27:49.372Z,3.10
2022-08-02T15:30:16.952Z,3.63
2022-08-02T15:32:53.439Z,3.33
2022-08-02T15:35:21.496Z,3.08
2022-08-02T15:37:48.845Z,3.60
2022-08-02T15:40:16.025Z,3.13
2022-08-02T15:42:46.348Z,3.08
2022-08-02T15:45:15.839Z,3.05
2022-08-02T15:47:48.300Z,4.10
2022-08-02T15:50:18.646Z,4.05
2022-08-02T15:53:18.035Z,3.13
2022-08-02T15:56:04.095Z,3.80
2022-08-02T15:58:32.779Z,4.95
2022-08-02T16:01:00.069Z,5.43
2022-08-02T16:03:27.310Z,4.93
2022-08-02T16:05:54.393Z,3.53
2022-08-02T16:08:21.510Z,3.42
2022-08-02T16:10:48.586Z,4.03
2022-08-02T16:13:37.270Z,3.30
2022-08-02T16:16:06.802Z,4.05
2022-08-02T16:18:34.065Z,3.72
2022-08-02T16:21:01.176Z,3.60
2022-08-02T16:23:59.544Z,3.83
2022-08-02T16:26:15.589Z,4.00
2022-08-02T16:28:42.797Z,4.32
2022-08-02T16:31:11.763Z,3.95
2022-08-02T16:33:39.160Z,3.80
2022-08-02T16:36:06.344Z,3.63
2022-08-02T16:38:33.516Z,3.72
2022-08-02T16:41:01.753Z,3.63
2022-08-02T16:43:29.012Z,4.70
2022-08-02T16:45:56.810Z,3.60
2022-08-02T16:48:23.999Z,3.15
2022-08-02T16:50:51.368Z,3.78
2022-08-02T16:53:36.723Z,4.10
2022-08-02T16:56:06.675Z,3.75
2022-08-02T16:58:33.866Z,3.70
2022-08-02T17:01:01.143Z,3.70
2022-08-02T17:03:33.569Z,4.30
2022-08-02T17:06:16.357Z,3.90
2022-08-02T17:08:54.660Z,3.42
2022-08-02T17:11:31.064Z,3.13
2022-08-02T17:13:58.433Z,2.92
2022-08-02T17:16:26.723Z,2.70
2022-08-02T17:18:55.068Z,2.33
2022-08-02T17:21:22.378Z,2.80
2022-08-02T17:24:07.602Z,2.65
2022-08-02T17:26:37.046Z,2.65
2022-08-02T17:29:14.241Z,3.70
2022-08-02T17:32:01.600Z,2.78
2022-08-02T17:34:34.556Z,3.00
2022-08-02T17:37:01.846Z,2.95
2022-08-02T17:39:34.577Z,3.13
2022-08-02T17:42:19.667Z,3.08
2022-08-02T17:44:49.326Z,3.58
2022-08-02T17:47:17.920Z,3.25
2022-08-02T17:49:48.575Z,3.22
2022-08-02T17:52:50.761Z,3.47
2022-08-02T17:55:05.679Z,3.33
2022-08-02T17:57:57.599Z,3.42
2022-08-02T18:00:20.576Z,2.50
2022-08-02T18:02:54.935Z,3.28
2022-08-02T18:05:36.220Z,2.30
2022-08-02T18:08:07.747Z,3.00
2022-08-02T18:10:35.095Z,2.30
2022-08-02T18:13:03.840Z,2.83
2022-08-02T18:15:32.356Z,2.58
2022-08-02T18:18:00.686Z,1.80
2022-08-02T18:20:27.770Z,2.08
2022-08-02T18:22:55.610Z,2.08
2022-08-02T18:25:37.342Z,2.05
2022-08-02T18:28:11.434Z,2.30
2022-08-02T18:30:39.035Z,3.03
2022-08-02T18:33:57.103Z,2.20
2022-08-02T18:35:55.213Z,2.65
2022-08-02T18:38:26.936Z,2.03
2022-08-02T18:40:55.824Z,2.05
2022-08-02T18:43:25.321Z,2.00
2022-08-02T18:46:05.801Z,2.50
2022-08-02T18:48:46.952Z,2.03
2022-08-02T18:51:16.552Z,2.30
2022-08-02T18:53:51.007Z,2.03
2022-08-02T18:56:24.750Z,2.10
2022-08-02T18:58:56.230Z,2.00
2022-08-02T19:01:33.592Z,2.47
2022-08-02T19:04:04.456Z,1.92
2022-08-02T19:06:31.835Z,2.15
2022-08-02T19:09:10.439Z,2.20
2022-08-02T19:11:48.057Z,2.67
2022-08-02T19:14:24.106Z,2.17
2022-08-02T19:16:59.492Z,2.45
2022-08-02T19:19:29.024Z,2.50
2022-08-02T19:22:17.319Z,2.60
2022-08-02T19:24:46.469Z,2.60
2022-08-02T19:27:14.884Z,2.92
2022-08-02T19:29:48.888Z,2.70
2022-08-02T19:32:40.174Z,2.65
2022-08-02T19:35:19.556Z,2.78
2022-08-02T19:37:59.247Z,2.78
2022-08-02T19:40:29.131Z,2.60
2022-08-02T19:44:23.831Z,2.38
2022-08-02T19:45:51.052Z,2.80
2022-08-02T19:50:56.178Z,2.75
2022-08-02T19:53:28.813Z,2.33
2022-08-02T19:56:13.249Z,2.47
2022-08-02T19:58:51.405Z,2.33
2022-08-02T20:01:25.371Z,2.33
2022-08-02T20:03:55.578Z,2.33
2022-08-02T20:06:29.426Z,2.28
2022-08-02T20:08:59.203Z,2.15
2022-08-02T20:11:34.851Z,2.45
2022-08-02T20:14:07.106Z,1.92
2022-08-02T20:16:35.493Z,2.10
2022-08-02T20:19:03.994Z,2.30
2022-08-02T20:21:35.573Z,2.80
2022-08-02T20:24:09.225Z,2.22
2022-08-02T20:26:47.735Z,2.80
2022-08-02T20:29:42.554Z,2.40
2022-08-02T20:32:05.792Z,2.28
2022-08-02T20:34:36.378Z,2.28
2022-08-02T20:38:01.283Z,2.25
2022-08-02T20:39:52.937Z,2.08
2022-08-02T20:42:23.626Z,2.30
2022-08-02T20:44:55.512Z,2.20
2022-08-02T20:47:27.822Z,1.95
2022-08-02T20:50:30.370Z,2.30
2022-08-02T20:53:04.182Z,1.70
2022-08-02T20:55:32.306Z,1.85
2022-08-02T20:58:02.198Z,2.28
2022-08-02T21:00:31.800Z,1.83
2022-08-02T21:03:00.347Z,2.10
2022-08-02T21:05:54.004Z,1.85
2022-08-02T21:08:15.466Z,2.10
2022-08-02T21:10:43.983Z,2.22
2022-08-02T21:13:25.959Z,1.70
2022-08-02T21:15:56.165Z,2.63
2022-08-02T21:18:38.522Z,2.38
2022-08-02T21:21:10.139Z,2.45
2022-08-02T21:23:38.489Z,2.00
2022-08-02T21:26:16.244Z,2.15
2022-08-02T21:28:53.393Z,2.00
2022-08-02T21:31:20.669Z,1.70
2022-08-02T21:33:58.517Z,1.40
2022-08-02T21:36:32.711Z,2.00
2022-08-02T21:39:18.455Z,1.45
2022-08-02T21:41:47.224Z,1.77
2022-08-02T21:44:16.319Z,1.90
2022-08-02T21:46:49.838Z,2.40
2022-08-02T21:49:18.705Z,1.77
2022-08-02T21:51:49.464Z,1.98
2022-08-02T21:54:20.320Z,1.80
2022-08-02T21:56:53.353Z,1.67
2022-08-02T21:59:26.060Z,1.45
2022-08-02T22:01:56.695Z,1.70
2022-08-02T22:04:25.723Z,1.67
2022-08-02T22:06:54.879Z,1.50
2022-08-02T22:09:43.917Z,1.95
2022-08-02T22:12:16.469Z,2.15
2022-08-02T22:15:00.516Z,1.65
2022-08-02T22:17:53.672Z,2.28
2022-08-02T22:20:19.641Z,2.10
2022-08-02T22:22:50.757Z,1.83
2022-08-02T22:25:26.927Z,1.75
2022-08-02T22:28:38.756Z,2.05
2022-08-02T22:30:55.352Z,2.13
2022-08-02T22:33:47.294Z,1.92
2022-08-02T22:36:33.599Z,1.80
2022-08-02T22:39:01.965Z,1.67
2022-08-02T22:42:01.235Z,1.90
2022-08-02T22:44:18.599Z,1.75
2022-08-02T22:46:46.730Z,1.80
2022-08-02T22:49:36.837Z,1.83
2022-08-02T22:52:04.633Z,1.88
2022-08-02T22:54:32.753Z,1.65
2022-08-02T22:56:59.926Z,3.88
2022-08-02T22:59:39.143Z,1.70
2022-08-02T23:02:07.863Z,1.88
2022-08-02T23:04:36.595Z,1.50
2022-08-02T23:07:04.700Z,1.90
2022-08-02T23:09:31.955Z,2.25
2022-08-02T23:11:59.500Z,1.90
2022-08-02T23:14:26.742Z,1.50
2022-08-02T23:17:12.666Z,1.75
2022-08-02T23:19:51.936Z,2.00
2022-08-02T23:22:29.944Z,1.75
2022-08-02T23:25:00.778Z,1.88
2022-08-02T23:27:29.011Z,2.00
2022-08-02T23:29:56.381Z,2.20
2022-08-02T23:32:25.843Z,1.70
2022-08-02T23:34:57.167Z,1.88
2022-08-02T23:37:25.115Z,2.05
2022-08-02T23:39:52.357Z,1.73
2022-08-02T23:42:19.673Z,2.10
2022-08-02T23:44:46.932Z,1.98
2022-08-02T23:47:14.194Z,2.05
2022-08-02T23:49:41.625Z,1.90
2022-08-02T23:52:08.869Z,1.90
2022-08-02T23:54:36.152Z,2.10
2022-08-02T23:57:20.905Z,2.15
2022-08-02T23:59:50.532Z,2.40
